Time;durP1;ratioP1;P1;durP2;ratioP2;P2;SDS_P1;SDS_P2;PMS_P1;PMS_P2;Temp;Humidity;BMP_temperature;BMP_pressure;BME280_temperature;BME280_humidity;BME280_pressure;Samples;Min_cycle;Max_cycle;Signal;HPM_P1;HPM_P2
2022/06/11 00:01:39;;;;;;;12.68;8.75;;;;;;;19.20;100.00;100228.75;5072038;28;20467;-77
2022/06/11 00:04:10;;;;;;;11.70;9.00;;;;;;;19.18;100.00;100234.31;5073326;28;20098;-77
2022/06/11 00:06:45;;;;;;;12.63;9.15;;;;;;;19.21;100.00;100239.44;5072991;28;20040;-77
2022/06/11 00:09:14;;;;;;;10.60;8.90;;;;;;;19.13;100.00;100239.31;5073272;28;20461;-76
2022/06/11 00:11:43;;;;;;;11.20;8.73;;;;;;;19.06;100.00;100239.03;5072784;28;20100;-78
2022/06/11 00:14:12;;;;;;;14.25;8.77;;;;;;;19.06;100.00;100244.44;5073186;28;20049;-75
2022/06/11 00:16:41;;;;;;;12.02;8.98;;;;;;;19.07;100.00;100239.91;5073343;28;20044;-75
2022/06/11 00:19:10;;;;;;;11.45;8.35;;;;;;;18.96;100.00;100243.63;5072917;28;20041;-75
2022/06/11 00:21:43;;;;;;;11.82;9.13;;;;;;;18.85;100.00;100247.34;5073012;28;20040;-76
2022/06/11 00:24:12;;;;;;;14.65;9.27;;;;;;;18.77;100.00;100249.94;5072938;28;20040;-76
2022/06/11 00:26:43;;;;;;;16.55;9.43;;;;;;;18.80;100.00;100252.31;5073144;28;20055;-75
2022/06/11 00:29:13;;;;;;;11.55;8.52;;;;;;;18.83;100.00;100260.16;5073138;28;20090;-75
2022/06/11 00:31:42;;;;;;;12.38;8.95;;;;;;;18.85;100.00;100244.66;5072978;28;20041;-75
2022/06/11 00:34:11;;;;;;;10.35;8.90;;;;;;;18.86;100.00;100246.34;5073036;28;20049;-75
2022/06/11 00:36:40;;;;;;;12.75;8.98;;;;;;;18.85;100.00;100249.22;5072822;28;20044;-75
2022/06/11 00:39:09;;;;;;;10.77;8.65;;;;;;;18.78;100.00;100243.53;5072874;28;20044;-74
2022/06/11 00:41:40;;;;;;;14.82;10.00;;;;;;;18.62;100.00;100248.63;5072838;28;20072;-74
2022/06/11 00:44:10;;;;;;;16.38;9.88;;;;;;;18.66;100.00;100255.50;5072314;28;20378;-74
2022/06/11 00:46:53;;;;;;;11.45;9.75;;;;;;;18.65;100.00;100250.25;5073071;28;20060;-74
2022/06/11 00:49:29;;;;;;;11.93;9.90;;;;;;;18.65;100.00;100253.78;5076955;28;20440;-74
2022/06/11 00:52:06;;;;;;;11.57;9.45;;;;;;;18.57;100.00;100245.50;5076397;28;20498;-74
2022/06/11 00:54:36;;;;;;;13.93;9.40;;;;;;;18.50;100.00;100247.94;5076334;28;20041;-75
2022/06/11 00:57:06;;;;;;;12.25;9.35;;;;;;;18.55;100.00;100244.81;5076888;28;20041;-74
2022/06/11 00:59:40;;;;;;;16.63;9.50;;;;;;;18.44;100.00;100253.06;5076715;28;20040;-74
2022/06/11 01:02:09;;;;;;;11.32;9.00;;;;;;;18.51;100.00;100254.19;5076814;28;20040;-75
2022/06/11 01:04:48;;;;;;;18.13;10.05;;;;;;;18.47;100.00;100248.22;5076363;28;20106;-75
2022/06/11 01:07:49;;;;;;;11.98;9.20;;;;;;;18.41;100.00;100242.53;5076604;28;20496;-74
2022/06/11 01:10:32;;;;;;;11.73;9.25;;;;;;;18.43;100.00;100240.53;5075418;28;20086;-74
2022/06/11 01:13:11;;;;;;;11.63;8.88;;;;;;;18.40;100.00;100246.22;5076459;28;20048;-74
2022/06/11 01:15:45;;;;;;;11.75;9.20;;;;;;;18.35;100.00;100237.72;5076142;28;20139;-74
2022/06/11 01:18:30;;;;;;;13.45;8.85;;;;;;;18.44;100.00;100253.06;5076283;28;20032;-75
2022/06/11 01:21:12;;;;;;;11.27;8.82;;;;;;;18.36;100.00;100255.63;5074745;28;20551;-75
2022/06/11 01:24:15;;;;;;;11.52;8.88;;;;;;;18.20;100.00;100259.72;5076123;28;20040;-76
2022/06/11 01:27:25;;;;;;;12.17;9.47;;;;;;;18.07;100.00;100261.84;5076093;28;20047;-76
2022/06/11 01:29:58;;;;;;;11.43;9.30;;;;;;;18.11;100.00;100255.16;5076195;28;20076;-75
2022/06/11 01:32:36;;;;;;;11.43;9.23;;;;;;;18.27;100.00;100255.47;5076256;28;20040;-75
2022/06/11 01:35:16;;;;;;;12.60;9.07;;;;;;;18.16;100.00;100254.75;5076225;28;20041;-77
2022/06/11 01:37:50;;;;;;;11.32;9.40;;;;;;;18.15;100.00;100253.91;5075942;28;20045;-77
2022/06/11 01:40:28;;;;;;;13.32;9.90;;;;;;;18.11;100.00;100249.78;5075830;28;20485;-74
2022/06/11 01:42:59;;;;;;;13.25;9.85;;;;;;;17.97;100.00;100248.34;5075786;28;20075;-78
2022/06/11 01:45:32;;;;;;;12.63;10.05;;;;;;;18.00;100.00;100255.31;5076053;28;20049;-76
2022/06/11 01:48:03;;;;;;;12.33;10.13;;;;;;;18.03;100.00;100249.63;5075752;28;20040;-77
2022/06/11 01:50:39;;;;;;;11.00;8.77;;;;;;;18.14;100.00;100252.19;5075535;28;20041;-75
2022/06/11 01:53:26;;;;;;;12.35;9.45;;;;;;;17.98;100.00;100251.91;5075922;28;20068;-75
2022/06/11 01:56:14;;;;;;;13.27;10.43;;;;;;;18.04;100.00;100259.41;5075318;28;20478;-73
2022/06/11 01:59:01;;;;;;;12.85;9.50;;;;;;;18.12;100.00;100262.28;5075213;28;20044;-74
2022/06/11 02:01:43;;;;;;;15.23;10.70;;;;;;;18.01;100.00;100267.78;5074469;28;20075;-74
2022/06/11 02:04:19;;;;;;;11.88;9.82;;;;;;;18.11;100.00;100270.50;5075388;28;20048;-74
2022/06/11 02:06:56;;;;;;;14.43;10.63;;;;;;;18.03;100.00;100260.41;5075366;28;20102;-74
2022/06/11 02:09:32;;;;;;;12.05;9.75;;;;;;;17.98;100.00;100268.09;5075699;28;20037;-72
2022/06/11 02:12:08;;;;;;;12.95;9.75;;;;;;;18.08;100.00;100266.25;5074797;28;20049;-74
2022/06/11 02:14:45;;;;;;;12.48;10.05;;;;;;;17.98;100.00;100268.09;5075268;28;20481;-75
2022/06/11 02:17:20;;;;;;;12.20;9.60;;;;;;;17.88;100.00;100267.22;5075407;28;20490;-73
2022/06/11 02:19:54;;;;;;;12.40;9.20;;;;;;;17.96;100.00;100262.84;5075198;28;20094;-74
2022/06/11 02:22:28;;;;;;;12.13;9.75;;;;;;;17.88;100.00;100267.22;5074154;28;20056;-74
2022/06/11 02:25:04;;;;;;;13.13;10.02;;;;;;;17.88;100.00;100264.50;5074900;28;20044;-74
2022/06/11 02:27:34;;;;;;;11.23;9.18;;;;;;;17.91;100.00;100266.94;5075292;28;20489;-74
2022/06/11 02:30:07;;;;;;;13.00;8.63;;;;;;;17.98;100.00;100268.94;5074585;28;20044;-74
2022/06/11 02:32:36;;;;;;;12.43;9.20;;;;;;;17.90;100.00;100276.03;5074877;28;20037;-74
2022/06/11 02:35:12;;;;;;;12.93;9.10;;;;;;;17.94;100.00;100272.03;5075042;28;20045;-72
2022/06/11 02:37:44;;;;;;;11.80;8.48;;;;;;;17.89;100.00;100268.91;5074799;28;20040;-78
2022/06/11 02:40:19;;;;;;;11.85;8.77;;;;;;;17.90;100.00;100281.41;5074662;28;20090;-74
2022/06/11 02:42:48;;;;;;;11.38;8.57;;;;;;;17.93;100.00;100276.59;5074680;28;20047;-74
2022/06/11 02:45:17;;;;;;;10.63;8.48;;;;;;;18.09;100.00;100277.91;5074737;28;20037;-73
2022/06/11 02:47:52;;;;;;;11.55;9.32;;;;;;;17.92;100.00;100284.81;5074554;28;20044;-74
2022/06/11 02:50:23;;;;;;;12.55;8.20;;;;;;;17.90;100.00;100278.72;5074875;28;20428;-73
2022/06/11 02:52:51;;;;;;;11.00;8.98;;;;;;;17.89;100.00;100290.50;5074408;28;20119;-74
2022/06/11 02:55:19;;;;;;;10.82;8.75;;;;;;;17.92;100.00;100288.38;5074353;28;20037;-74
2022/06/11 02:57:48;;;;;;;11.50;8.60;;;;;;;17.90;100.00;100305.69;5074223;28;20071;-74
2022/06/11 03:00:20;;;;;;;11.38;8.90;;;;;;;17.89;100.00;100302.16;5074442;28;20041;-74
2022/06/11 03:02:49;;;;;;;14.75;7.95;;;;;;;17.92;100.00;100301.00;5073937;28;20037;-74
2022/06/11 03:05:21;;;;;;;11.40;8.20;;;;;;;17.96;100.00;100297.91;5074011;28;20048;-74
2022/06/11 03:07:49;;;;;;;13.27;8.48;;;;;;;17.95;100.00;100298.03;5074206;28;20048;-74
2022/06/11 03:10:20;;;;;;;12.00;8.02;;;;;;;18.02;100.00;100308.13;5072313;28;20057;-75
2022/06/11 03:12:49;;;;;;;10.55;8.20;;;;;;;18.13;100.00;100301.75;5034119;28;20044;-74
2022/06/11 03:15:19;;;;;;;10.38;8.13;;;;;;;18.07;100.00;100309.59;5033952;28;20067;-74
2022/06/11 03:17:50;;;;;;;10.32;8.35;;;;;;;18.01;100.00;100313.69;5033700;28;20041;-76
2022/06/11 03:20:22;;;;;;;11.95;8.77;;;;;;;17.92;100.00;100317.19;5034265;28;20502;-75
2022/06/11 03:22:50;;;;;;;12.15;8.80;;;;;;;17.93;100.00;100314.34;5033989;28;20051;-75
2022/06/11 03:25:19;;;;;;;11.45;9.45;;;;;;;17.88;100.00;100318.47;5034085;28;20210;-75
2022/06/11 03:27:47;;;;;;;12.63;9.48;;;;;;;17.93;100.00;100318.91;5033793;28;20099;-75
2022/06/11 03:30:17;;;;;;;12.40;9.93;;;;;;;17.93;100.00;100314.34;5032872;28;20099;-74
2022/06/11 03:32:45;;;;;;;12.75;9.98;;;;;;;18.11;100.00;100327.19;5033398;28;20045;-75
2022/06/11 03:35:15;;;;;;;14.48;9.93;;;;;;;18.15;100.00;100324.09;5033665;28;20053;-74
2022/06/11 03:37:44;;;;;;;13.00;10.70;;;;;;;18.20;100.00;100331.75;5033724;28;20037;-77
2022/06/11 03:40:13;;;;;;;12.07;9.90;;;;;;;18.54;100.00;100333.09;5033440;28;20041;-74
2022/06/11 03:42:41;;;;;;;11.63;9.88;;;;;;;18.69;100.00;100344.34;5033443;28;20081;-76
2022/06/11 03:45:11;;;;;;;13.63;9.77;;;;;;;19.13;100.00;100334.78;5033845;28;20045;-74
2022/06/11 03:47:40;;;;;;;11.02;8.45;;;;;;;19.32;100.00;100339.31;5033480;28;20437;-75
2022/06/11 03:50:10;;;;;;;11.07;8.40;;;;;;;20.46;100.00;100331.81;5033419;28;20041;-76
2022/06/11 03:52:40;;;;;;;11.07;8.60;;;;;;;21.20;100.00;100327.88;5033702;28;20069;-76
2022/06/11 03:55:09;;;;;;;11.35;7.75;;;;;;;21.75;93.41;100322.13;5033067;28;20383;-74
2022/06/11 03:57:37;;;;;;;11.40;8.00;;;;;;;22.11;88.29;100326.41;5033566;28;20100;-74
2022/06/11 04:00:09;;;;;;;10.20;7.78;;;;;;;22.80;82.51;100322.44;5031960;28;20128;-75
2022/06/11 04:02:38;;;;;;;10.23;7.57;;;;;;;23.13;79.10;100317.00;5033305;28;20047;-75
2022/06/11 04:05:08;;;;;;;8.70;7.47;;;;;;;23.76;73.88;100329.00;5033121;28;20290;-76
2022/06/11 04:07:37;;;;;;;8.73;7.22;;;;;;;23.34;73.62;100320.03;5033596;28;20041;-75
2022/06/11 04:10:09;;;;;;;10.35;6.97;;;;;;;23.25;74.23;100326.50;5031696;28;20053;-74
2022/06/11 04:12:40;;;;;;;8.85;7.03;;;;;;;23.66;72.01;100312.84;5071665;28;20055;-74
2022/06/11 04:15:11;;;;;;;11.02;7.10;;;;;;;23.76;70.79;100324.41;5073375;28;20374;-76
2022/06/11 04:17:40;;;;;;;8.35;7.00;;;;;;;24.38;67.67;100324.44;5073282;28;20052;-76
2022/06/11 04:20:09;;;;;;;9.27;6.75;;;;;;;24.38;67.37;100316.28;5073037;28;20098;-78
2022/06/11 04:22:37;;;;;;;8.00;6.57;;;;;;;24.08;68.49;100314.38;5073218;28;20536;-74
2022/06/11 04:25:09;;;;;;;9.95;6.93;;;;;;;22.95;73.58;100319.06;5072990;28;20048;-76
2022/06/11 04:27:37;;;;;;;9.48;6.80;;;;;;;21.91;79.06;100324.94;5072907;28;20048;-74
2022/06/11 04:30:09;;;;;;;9.35;6.55;;;;;;;21.15;83.42;100328.38;5072892;28;20371;-74
2022/06/11 04:32:37;;;;;;;8.60;6.65;;;;;;;21.13;85.63;100328.53;5072963;28;20040;-74
2022/06/11 04:35:07;;;;;;;10.02;6.75;;;;;;;22.21;79.24;100320.81;5072971;28;20533;-73
2022/06/11 04:37:35;;;;;;;8.60;6.63;;;;;;;23.87;68.77;100321.28;5073100;28;20048;-73
2022/06/11 04:40:07;;;;;;;9.23;6.90;;;;;;;24.93;63.18;100331.56;5072893;28;20045;-72
2022/06/11 04:42:37;;;;;;;9.63;6.85;;;;;;;25.82;59.91;100329.00;5073323;28;20123;-72
2022/06/11 04:45:07;;;;;;;8.45;6.18;;;;;;;26.02;56.82;100332.84;5072679;28;20041;-72
2022/06/11 04:47:35;;;;;;;8.35;5.85;;;;;;;24.80;62.79;100340.38;5072934;28;20041;-78
2022/06/11 04:50:05;;;;;;;8.35;6.07;;;;;;;23.92;64.70;100340.66;5071451;28;20049;-80
2022/06/11 04:52:34;;;;;;;8.13;6.68;;;;;;;23.26;68.86;100347.28;5073209;28;20124;-78
2022/06/11 04:55:04;;;;;;;8.23;6.32;;;;;;;22.45;73.69;100355.34;5072775;28;20041;-77
2022/06/11 04:57:33;;;;;;;8.57;6.53;;;;;;;22.34;73.90;100352.94;5073015;28;20051;-78
2022/06/11 05:00:05;;;;;;;10.65;6.70;;;;;;;22.64;72.83;100362.34;5072577;28;20047;-78
2022/06/11 05:02:33;;;;;;;9.40;6.53;;;;;;;22.69;71.29;100369.00;5073037;28;20436;-80
2022/06/11 05:05:02;;;;;;;9.73;6.63;;;;;;;23.04;70.23;100356.97;5072562;28;20466;-77
2022/06/11 05:07:30;;;;;;;9.52;6.82;;;;;;;24.54;63.95;100357.06;5072734;28;20169;-77
2022/06/11 05:09:58;;;;;;;7.47;6.22;;;;;;;25.61;59.87;100357.06;5072660;28;20433;-75
2022/06/11 05:12:26;;;;;;;8.45;6.43;;;;;;;26.23;56.00;100364.88;5071505;28;20049;-74
2022/06/11 05:14:55;;;;;;;8.55;5.60;;;;;;;26.72;52.43;100359.56;5072577;28;20045;-71
2022/06/11 05:17:24;;;;;;;7.20;5.68;;;;;;;26.22;52.51;100369.50;5072634;28;20479;-73
2022/06/11 05:19:53;;;;;;;7.53;5.65;;;;;;;26.60;51.82;100361.13;5072362;28;20090;-73
2022/06/11 05:22:21;;;;;;;7.25;5.65;;;;;;;27.27;50.01;100362.66;5072792;28;20048;-73
2022/06/11 05:24:49;;;;;;;7.03;4.65;;;;;;;26.37;50.66;100365.91;5071015;28;20079;-73
2022/06/11 05:27:22;;;;;;;5.65;5.05;;;;;;;25.96;53.64;100369.13;5072104;28;20040;-72
2022/06/11 05:29:54;;;;;;;6.30;5.38;;;;;;;26.07;53.46;100360.47;5071430;28;20057;-76
2022/06/11 05:32:29;;;;;;;8.98;5.63;;;;;;;26.55;51.09;100362.78;5072759;28;20051;-72
2022/06/11 05:34:58;;;;;;;7.28;5.35;;;;;;;27.34;49.86;100375.34;5074479;28;20132;-72
2022/06/11 05:37:27;;;;;;;9.57;4.97;;;;;;;27.05;49.04;100370.91;5076159;28;20421;-74
2022/06/11 05:39:55;;;;;;;8.27;5.10;;;;;;;27.22;49.37;100365.16;5076062;28;20040;-74
2022/06/11 05:42:26;;;;;;;7.28;5.40;;;;;;;27.93;47.19;100355.75;5075646;28;20136;-74
2022/06/11 05:44:54;;;;;;;9.15;5.10;;;;;;;28.10;46.13;100364.50;5075725;28;20117;-74
2022/06/11 05:47:27;;;;;;;7.30;5.13;;;;;;;28.31;45.39;100376.44;5075620;28;20438;-77
2022/06/11 05:49:59;;;;;;;7.13;4.90;;;;;;;28.24;45.26;100370.88;5075894;28;20036;-77
2022/06/11 05:52:35;;;;;;;6.55;5.05;;;;;;;28.71;44.09;100370.03;5076147;28;20047;-77
2022/06/11 05:55:03;;;;;;;5.63;4.70;;;;;;;28.81;44.01;100372.34;5075532;28;20122;-77
2022/06/11 05:57:32;;;;;;;7.18;5.40;;;;;;;28.33;45.81;100375.16;5075923;28;20576;-77
2022/06/11 06:00:06;;;;;;;6.82;5.13;;;;;;;28.33;45.70;100369.69;5075586;28;20118;-77
2022/06/11 06:02:36;;;;;;;8.52;5.30;;;;;;;28.58;45.46;100369.16;5075714;28;20506;-77
2022/06/11 06:05:04;;;;;;;6.28;5.13;;;;;;;28.44;46.14;100363.59;5074053;28;20051;-77
2022/06/11 06:07:32;;;;;;;8.10;5.47;;;;;;;28.66;44.95;100368.94;5075631;28;20040;-77
2022/06/11 06:10:01;;;;;;;7.57;5.07;;;;;;;28.69;44.06;100374.88;5074164;28;20057;-77
2022/06/11 06:12:31;;;;;;;5.82;5.00;;;;;;;28.23;45.86;100363.72;5075781;28;20102;-77
2022/06/11 06:15:04;;;;;;;7.32;4.82;;;;;;;29.22;43.91;100366.72;5075240;28;20394;-77
2022/06/11 06:17:33;;;;;;;6.80;5.20;;;;;;;27.92;45.18;100370.53;5074225;28;20497;-76
2022/06/11 06:20:04;;;;;;;8.70;5.25;;;;;;;27.80;45.85;100363.91;5075058;28;20044;-76
2022/06/11 06:22:32;;;;;;;6.97;4.95;;;;;;;28.03;45.74;100358.13;5075520;28;20040;-76
2022/06/11 06:25:00;;;;;;;6.22;4.85;;;;;;;27.99;45.09;100362.34;5074528;28;20036;-76
2022/06/11 06:27:29;;;;;;;8.30;5.45;;;;;;;28.88;43.12;100361.41;5074686;28;20060;-76
2022/06/11 06:29:57;;;;;;;7.25;4.88;;;;;;;29.66;42.08;100367.16;5075073;28;20132;-76
2022/06/11 06:32:25;;;;;;;7.45;4.90;;;;;;;29.25;42.52;100369.06;5074059;28;20059;-76
2022/06/11 06:34:54;;;;;;;5.90;4.72;;;;;;;29.20;42.59;100374.34;5075036;28;20059;-72
2022/06/11 06:37:23;;;;;;;6.63;4.80;;;;;;;28.45;44.30;100370.78;5074903;28;20043;-73
2022/06/11 06:39:51;;;;;;;5.93;4.80;;;;;;;28.55;43.65;100366.81;5075060;28;20442;-74
2022/06/11 06:42:19;;;;;;;7.15;4.60;;;;;;;28.77;42.77;100371.09;5074571;28;20047;-73
2022/06/11 06:44:47;;;;;;;5.78;4.63;;;;;;;28.02;45.21;100388.50;5074565;28;20068;-73
2022/06/11 06:47:16;;;;;;;6.40;4.38;;;;;;;28.70;42.50;100386.69;5074319;28;20044;-72
2022/06/11 06:49:44;;;;;;;5.72;4.38;;;;;;;27.83;43.81;100371.72;5074393;28;20087;-73
2022/06/11 06:52:12;;;;;;;7.10;4.57;;;;;;;27.95;44.37;100372.00;5074380;28;20036;-74
2022/06/11 06:54:41;;;;;;;6.75;4.88;;;;;;;28.26;44.32;100371.50;5074472;28;20039;-73
2022/06/11 06:57:09;;;;;;;8.38;5.00;;;;;;;28.09;44.21;100378.41;5074215;28;20041;-74
2022/06/11 06:59:38;;;;;;;6.50;5.10;;;;;;;27.45;45.79;100367.63;5074349;28;20398;-74
2022/06/11 07:02:07;;;;;;;7.40;5.07;;;;;;;27.01;47.78;100374.16;5073867;28;20047;-75
2022/06/11 07:04:35;;;;;;;7.88;5.35;;;;;;;26.67;49.93;100367.53;5074174;28;20036;-75
2022/06/11 07:07:03;;;;;;;6.32;4.85;;;;;;;26.31;49.92;100367.50;5074132;28;20050;-76
2022/06/11 07:09:34;;;;;;;6.35;5.07;;;;;;;26.40;50.24;100366.38;5074074;28;20055;-75
2022/06/11 07:12:03;;;;;;;8.23;5.28;;;;;;;26.25;51.48;100369.13;5073694;28;20151;-76
2022/06/11 07:14:32;;;;;;;7.57;5.50;;;;;;;25.95;52.34;100373.75;5072958;28;20055;-75
2022/06/11 07:17:06;;;;;;;6.70;5.40;;;;;;;25.61;53.76;100366.09;5073943;28;20041;-76
2022/06/11 07:19:42;;;;;;;7.80;5.88;;;;;;;26.24;52.34;100372.88;5074155;28;20056;-75
2022/06/11 07:22:16;;;;;;;7.35;5.30;;;;;;;25.98;50.98;100361.63;5073647;28;20036;-76
2022/06/11 07:24:45;;;;;;;7.65;5.35;;;;;;;25.72;50.67;100377.63;5074870;28;20440;-78
2022/06/11 07:27:18;;;;;;;8.07;5.28;;;;;;;25.47;53.04;100372.38;5074148;28;20132;-77
2022/06/11 07:29:50;;;;;;;8.10;5.53;;;;;;;25.62;50.27;100375.97;5074345;28;20128;-77
2022/06/11 07:32:27;;;;;;;6.13;4.90;;;;;;;25.47;50.95;100377.81;5074093;28;20046;-72
2022/06/11 07:34:56;;;;;;;7.38;5.18;;;;;;;25.55;51.46;100377.75;5073801;28;20131;-72
2022/06/11 07:37:24;;;;;;;7.63;5.15;;;;;;;25.26;50.77;100388.63;5073821;28;20101;-75
2022/06/11 07:39:52;;;;;;;7.53;5.55;;;;;;;25.15;53.41;100381.72;5073148;28;20119;-73
2022/06/11 07:42:22;;;;;;;6.97;5.20;;;;;;;25.41;51.86;100384.06;5078615;28;20045;-75
2022/06/11 07:44:50;;;;;;;8.25;4.97;;;;;;;25.14;51.94;100381.91;5073489;28;20075;-78
2022/06/11 07:47:53;;;;;;;6.93;5.50;;;;;;;25.21;51.89;100385.59;5074853;28;20402;-80
2022/06/11 07:50:12;;;;;;;6.20;4.78;;;;;;;25.25;51.98;100382.31;5074497;28;20054;-79
2022/06/11 07:52:42;;;;;;;5.88;5.10;;;;;;;25.36;52.83;100389.19;5072589;28;20056;-76
2022/06/11 07:55:12;;;;;;;6.05;4.97;;;;;;;25.16;53.14;100388.03;5074078;28;20113;-78
2022/06/11 07:57:41;;;;;;;6.72;5.07;;;;;;;25.40;51.51;100396.00;5074612;28;20114;-79
2022/06/11 08:00:13;;;;;;;7.57;5.03;;;;;;;24.99;53.48;100384.53;5075339;28;20057;-81
2022/06/11 08:02:41;;;;;;;6.97;5.45;;;;;;;25.14;52.56;100387.38;5073899;28;20048;-75
2022/06/11 08:05:10;;;;;;;5.90;4.90;;;;;;;25.24;51.66;100390.69;5073648;28;20367;-81
2022/06/11 08:07:38;;;;;;;7.45;4.63;;;;;;;25.23;51.17;100391.72;5073490;28;20060;-77
2022/06/11 08:10:07;;;;;;;6.00;4.90;;;;;;;25.34;51.44;100392.13;5073358;28;20047;-79
2022/06/11 08:12:36;;;;;;;5.88;4.90;;;;;;;25.27;49.91;100396.63;5072157;28;20081;-78
2022/06/11 08:15:07;;;;;;;5.85;4.78;;;;;;;25.43;50.21;100387.44;5072434;28;20055;-76
2022/06/11 08:17:36;;;;;;;6.10;4.43;;;;;;;25.07;50.80;100399.00;5072863;28;20470;-77
2022/06/11 08:20:06;;;;;;;5.55;4.38;;;;;;;25.18;49.64;100392.25;5073034;28;20044;-78
2022/06/11 08:22:35;;;;;;;5.45;4.80;;;;;;;25.34;51.09;100386.66;5072843;28;20033;-77
2022/06/11 08:25:04;;;;;;;5.72;4.65;;;;;;;25.29;51.96;100391.00;5072687;28;20049;-78
2022/06/11 08:27:32;;;;;;;5.13;4.57;;;;;;;25.39;50.87;100383.41;5073149;28;20074;-77
2022/06/11 08:30:00;;;;;;;5.90;4.50;;;;;;;25.08;51.09;100387.03;5073252;28;20040;-77
2022/06/11 08:32:30;;;;;;;7.07;4.82;;;;;;;25.25;50.75;100376.00;5072996;28;20036;-77
2022/06/11 08:34:58;;;;;;;6.13;4.90;;;;;;;25.34;51.18;100394.00;5072945;28;20444;-77
2022/06/11 08:37:26;;;;;;;7.72;5.18;;;;;;;25.09;51.74;100383.31;5072557;28;20079;-77
2022/06/11 08:39:55;;;;;;;7.10;4.47;;;;;;;25.45;50.99;100382.63;5073111;28;20354;-77
2022/06/11 08:42:35;;;;;;;5.90;4.40;;;;;;;25.30;49.04;100379.88;5071569;28;20509;-77
2022/06/11 08:45:07;;;;;;;5.55;4.40;;;;;;;25.42;50.26;100388.47;5073097;28;20064;-77
2022/06/11 08:47:44;;;;;;;7.97;4.65;;;;;;;25.62;50.84;100384.16;5072738;28;20048;-77
2022/06/11 08:50:16;;;;;;;5.40;4.47;;;;;;;25.47;50.10;100380.56;5072790;28;20478;-77
2022/06/11 08:52:46;;;;;;;6.47;5.20;;;;;;;25.47;51.50;100374.25;5073099;28;20371;-77
2022/06/11 08:55:14;;;;;;;6.60;4.82;;;;;;;25.54;50.19;100380.69;5072512;28;20032;-76
2022/06/11 08:57:55;;;;;;;7.63;4.72;;;;;;;25.55;50.22;100376.91;5072709;28;20088;-77
2022/06/11 09:00:33;;;;;;;6.05;4.90;;;;;;;25.54;50.08;100365.13;5072902;28;20378;-77
2022/06/11 09:03:21;;;;;;;7.30;4.65;;;;;;;25.46;50.74;100381.59;5072877;28;20489;-76
2022/06/11 09:06:22;;;;;;;6.47;4.82;;;;;;;25.76;51.67;100374.31;5072710;28;20041;-76
2022/06/11 09:09:03;;;;;;;5.88;4.50;;;;;;;25.82;50.10;100372.72;5073390;28;20049;-77
2022/06/11 09:11:48;;;;;;;6.05;4.80;;;;;;;25.82;50.66;100384.50;5076859;28;20053;-77
2022/06/11 09:14:38;;;;;;;5.45;4.50;;;;;;;26.07;49.00;100365.09;5076128;28;20072;-77
2022/06/11 09:17:29;;;;;;;7.10;4.80;;;;;;;25.93;49.94;100364.91;5075957;28;20036;-76
2022/06/11 09:20:12;;;;;;;6.90;4.63;;;;;;;25.72;50.04;100372.16;5074305;28;20052;-73
2022/06/11 09:22:52;;;;;;;;;;;;;;;25.89;50.87;100377.25;5076630;28;20044;-72
2022/06/11 09:25:33;;;;;;;5.68;4.43;;;;;;;26.12;48.86;100374.41;5075589;28;19927;-75
2022/06/11 09:28:09;;;;;;;5.88;4.90;;;;;;;26.44;48.33;100367.69;5076294;28;20072;-74
2022/06/11 09:30:41;;;;;;;6.05;4.78;;;;;;;26.47;52.18;100352.78;5076313;28;20044;-76
2022/06/11 09:33:16;;;;;;;7.07;4.43;;;;;;;26.66;48.09;100354.06;5076025;28;20120;-77
2022/06/11 09:35:52;;;;;;;5.47;4.57;;;;;;;26.81;47.46;100357.56;5076091;28;20465;-80
2022/06/11 09:38:31;;;;;;;7.15;4.90;;;;;;;26.64;48.85;100354.25;5074824;28;20048;-81
2022/06/11 09:41:14;;;;;;;7.15;4.65;;;;;;;26.90;47.98;100355.53;5076050;28;20382;-75
2022/06/11 09:43:47;;;;;;;;;;;;;;;26.91;49.01;100346.28;5076402;28;20040;-74
2022/06/11 09:46:22;;;;;;;6.68;4.68;;;;;;;26.89;48.01;100353.84;5075481;28;19921;-80
2022/06/11 09:49:03;;;;;;;6.93;4.47;;;;;;;26.57;49.40;100350.59;5074567;28;20044;-81
2022/06/11 09:51:40;;;;;;;6.50;4.47;;;;;;;26.30;49.21;100348.56;5073900;28;20132;-82
2022/06/11 09:54:28;;;;;;;7.13;4.90;;;;;;;26.49;48.48;100358.91;5075716;28;20037;-83
2022/06/11 09:57:06;;;;;;;6.53;5.07;;;;;;;26.40;48.90;100349.13;5075542;28;20401;-84
2022/06/11 09:59:42;;;;;;;6.18;4.63;;;;;;;26.56;49.06;100342.59;5075717;28;20051;-77
2022/06/11 10:02:20;;;;;;;6.50;4.75;;;;;;;27.00;47.60;100336.91;5075224;28;20044;-77
2022/06/11 10:04:50;;;;;;;6.82;5.40;;;;;;;27.16;49.24;100338.56;5075189;28;20123;-77
2022/06/11 10:07:25;;;;;;;5.60;4.60;;;;;;;26.86;48.07;100337.84;5075311;28;20045;-77
2022/06/11 10:09:59;;;;;;;5.68;4.38;;;;;;;26.49;48.87;100337.88;5075502;28;20052;-77
2022/06/11 10:12:32;;;;;;;6.50;5.00;;;;;;;26.75;47.63;100337.31;5073895;28;20052;-77
2022/06/11 10:15:03;;;;;;;6.60;4.78;;;;;;;26.78;46.72;100338.81;5075420;28;20474;-78
2022/06/11 10:17:39;;;;;;;5.80;4.50;;;;;;;27.16;46.21;100328.44;5074997;28;20124;-77
2022/06/11 10:20:14;;;;;;;6.30;4.18;;;;;;;27.15;44.14;100320.44;5074521;28;20036;-77
2022/06/11 10:22:47;;;;;;;7.82;4.13;;;;;;;27.07;44.92;100325.00;5075565;28;20474;-77
2022/06/11 10:25:23;;;;;;;5.97;4.18;;;;;;;27.22;44.00;100324.94;5083241;28;20041;-77
2022/06/11 10:27:59;;;;;;;7.03;4.18;;;;;;;27.22;45.15;100316.72;5084521;28;20422;-77
2022/06/11 10:30:35;;;;;;;4.93;4.05;;;;;;;26.86;43.97;100321.41;5075121;28;20046;-73
2022/06/11 10:33:07;;;;;;;4.97;3.92;;;;;;;26.77;44.03;100327.00;5075094;28;20474;-74
2022/06/11 10:35:42;;;;;;;5.82;4.00;;;;;;;26.67;43.96;100318.28;5074131;28;20064;-72
2022/06/11 10:38:24;;;;;;;6.90;4.30;;;;;;;26.84;44.53;100318.88;5074838;28;20036;-74
2022/06/11 10:40:53;;;;;;;5.47;4.28;;;;;;;26.67;44.02;100317.44;5074494;28;20052;-74
2022/06/11 10:43:29;;;;;;;4.70;3.90;;;;;;;26.78;43.46;100317.75;5074489;28;20041;-74
2022/06/11 10:45:58;;;;;;;5.78;4.20;;;;;;;26.78;44.88;100320.50;5074873;28;20124;-74
2022/06/11 10:48:36;;;;;;;7.80;3.90;;;;;;;27.07;42.06;100313.22;5074277;28;20051;-72
2022/06/11 10:51:14;;;;;;;6.10;3.83;;;;;;;27.57;41.53;100308.50;5074340;28;20123;-72
2022/06/11 10:53:58;;;;;;;5.78;3.85;;;;;;;27.36;42.87;100326.69;5073481;28;20107;-72
2022/06/11 10:56:35;;;;;;;5.22;3.83;;;;;;;27.31;43.59;100303.69;5070880;28;20051;-73
2022/06/11 10:59:10;;;;;;;6.03;4.10;;;;;;;27.55;43.01;100305.13;5074232;28;20135;-75
2022/06/11 11:01:44;;;;;;;5.72;3.90;;;;;;;27.26;43.62;100312.50;5073273;28;20043;-88
2022/06/11 11:04:30;;;;;;;5.60;3.72;;;;;;;27.07;44.70;100307.72;5072754;28;20139;-88
2022/06/11 11:07:15;;;;;;;5.80;3.80;;;;;;;27.16;42.20;100300.22;5073305;28;20086;-84
2022/06/11 11:09:45;;;;;;;5.68;3.72;;;;;;;27.28;41.40;100298.63;5072612;28;20052;-82
2022/06/11 11:12:21;;;;;;;5.95;3.40;;;;;;;27.44;40.03;100302.94;5073077;28;20064;-78
2022/06/11 11:15:00;;;;;;;4.40;3.58;;;;;;;27.67;39.41;100307.13;5071895;28;20481;-74
2022/06/11 11:17:31;;;;;;;5.55;3.78;;;;;;;27.30;39.48;100302.84;5073049;28;20487;-80
2022/06/11 11:20:34;;;;;;;4.72;3.65;;;;;;;27.42;43.56;100299.56;5071592;28;20060;-77
2022/06/11 11:23:14;;;;;;;7.45;4.70;;;;;;;27.47;46.63;100297.06;5072871;28;20139;-75
2022/06/11 11:25:48;;;;;;;6.05;4.38;;;;;;;27.51;47.71;100288.25;5072997;28;20047;-72
2022/06/11 11:28:23;;;;;;;5.88;4.70;;;;;;;27.54;47.26;100276.88;5073191;28;20067;-77
2022/06/11 11:31:02;;;;;;;6.35;4.38;;;;;;;27.49;46.40;100275.78;5071793;28;20474;-80
2022/06/11 11:33:33;;;;;;;5.38;4.13;;;;;;;27.50;45.52;100274.75;5072935;28;20400;-74
2022/06/11 11:36:12;;;;;;;8.30;4.80;;;;;;;27.29;46.77;100290.19;5073420;28;20070;-69
2022/06/11 11:38:41;;;;;;;6.13;4.50;;;;;;;27.21;48.19;100278.56;5072791;28;20094;-73
2022/06/11 11:41:23;;;;;;;8.38;5.30;;;;;;;27.41;48.57;100281.41;5072832;28;20071;-76
2022/06/11 11:43:56;;;;;;;5.85;4.80;;;;;;;27.47;48.25;100292.44;5071728;28;20048;-71
2022/06/11 11:46:32;;;;;;;5.47;4.65;;;;;;;27.55;49.32;100272.25;5073295;28;20456;-72